Time;durP1;ratioP1;P1;durP2;ratioP2;P2;SDS_P1;SDS_P2;PMS_P1;PMS_P2;Temp;Humidity;BMP_temperature;BMP_pressure;BME280_temperature;BME280_humidity;BME280_pressure;Samples;Min_cycle;Max_cycle;Signal;HPM_P1;HPM_P2
2021/11/10 00:00:45;;;;;;;14.75;6.57;;;;;;;10.41;100.00;101175.47;5036315;28;20407;-94
2021/11/10 00:03:13;;;;;;;10.60;7.63;;;;;;;10.58;100.00;101174.88;5036657;28;20470;-95
2021/11/10 00:05:41;;;;;;;10.02;7.20;;;;;;;10.59;100.00;101163.53;5037126;28;20358;-96
2021/11/10 00:08:08;;;;;;;9.52;6.25;;;;;;;10.38;100.00;101165.13;5036767;28;20038;-95
2021/11/10 00:10:37;;;;;;;9.15;6.38;;;;;;;10.44;100.00;101155.38;5036827;28;20049;-95
2021/11/10 00:13:19;;;;;;;9.00;6.35;;;;;;;10.42;100.00;101146.75;5036611;28;20100;-96
2021/11/10 00:15:52;;;;;;;6.45;5.75;;;;;;;10.32;100.00;101149.72;5036396;28;20059;-95
2021/11/10 00:18:20;;;;;;;6.90;5.93;;;;;;;10.39;100.00;101159.91;5036194;28;20092;-94
2021/11/10 00:20:57;;;;;;;9.30;6.47;;;;;;;10.37;100.00;101163.44;5035823;28;20047;-95
2021/11/10 00:23:24;;;;;;;8.75;6.10;;;;;;;10.49;100.00;101158.69;5037445;28;20094;-96
2021/11/10 00:25:51;;;;;;;9.57;5.78;;;;;;;10.37;100.00;101159.06;5040734;28;20041;-95
2021/11/10 00:28:18;;;;;;;7.07;5.22;;;;;;;10.41;100.00;101149.41;5045390;28;20447;-95
2021/11/10 00:30:44;;;;;;;7.53;5.68;;;;;;;10.54;100.00;101147.22;5042270;28;20033;-96
2021/11/10 00:33:38;;;;;;;8.93;7.40;;;;;;;10.59;100.00;101156.56;5041495;28;20086;-96
2021/11/10 00:36:05;;;;;;;8.25;6.32;;;;;;;10.44;100.00;101151.91;5041334;28;20112;-96
2021/11/10 00:38:31;;;;;;;13.02;6.78;;;;;;;10.44;100.00;101151.91;5040265;28;20041;-96
2021/11/10 00:40:58;;;;;;;9.35;5.60;;;;;;;10.45;100.00;101146.66;5040854;28;20435;-95
2021/11/10 00:43:25;;;;;;;9.00;6.18;;;;;;;10.29;100.00;101148.09;5036236;28;20091;-96
2021/11/10 00:45:52;;;;;;;9.18;6.28;;;;;;;10.19;100.00;101151.88;5038156;28;20050;-96
2021/11/10 00:48:27;;;;;;;10.40;6.00;;;;;;;10.24;100.00;101147.38;5024022;28;20048;-96
2021/11/10 00:50:54;;;;;;;10.32;6.43;;;;;;;10.17;100.00;101145.84;5021138;28;20089;-94
2021/11/10 00:53:51;;;;;;;6.80;5.55;;;;;;;10.43;100.00;101153.66;5025562;28;20088;-95
2021/11/10 00:56:17;;;;;;;10.23;5.57;;;;;;;10.48;100.00;101151.72;5037129;28;20053;-96
2021/11/10 00:58:45;;;;;;;9.23;5.82;;;;;;;10.47;100.00;101149.19;5039269;28;20128;-96
2021/11/10 01:01:12;;;;;;;8.15;6.22;;;;;;;10.40;100.00;101143.34;5038226;28;20148;-95
2021/11/10 01:03:41;;;;;;;13.63;7.18;;;;;;;10.20;100.00;101141.38;5018987;28;20046;-96
2021/11/10 01:06:08;;;;;;;7.55;6.00;;;;;;;9.97;100.00;101134.34;5032724;28;20053;-95
2021/11/10 01:08:35;;;;;;;8.40;6.47;;;;;;;9.92;100.00;101131.06;5045169;28;20091;-96
2021/11/10 01:11:53;;;;;;;9.30;6.85;;;;;;;9.78;100.00;101128.03;5045063;28;20042;-96
2021/11/10 01:14:23;;;;;;;12.15;5.70;;;;;;;10.13;100.00;101131.25;5046060;28;20059;-95
2021/11/10 01:16:50;;;;;;;9.50;6.60;;;;;;;10.23;100.00;101135.22;5043942;28;20136;-94
2021/11/10 01:19:23;;;;;;;11.25;6.28;;;;;;;10.35;100.00;101150.47;5037361;28;20041;-96
2021/11/10 01:21:50;;;;;;;9.38;5.95;;;;;;;10.39;100.00;101139.03;5041410;28;20144;-95
2021/11/10 01:24:17;;;;;;;8.27;6.35;;;;;;;10.30;100.00;101141.97;5043809;28;20049;-96
2021/11/10 01:26:45;;;;;;;8.18;6.13;;;;;;;10.21;100.00;101137.03;5043079;28;20037;-96
2021/11/10 01:29:13;;;;;;;6.90;5.05;;;;;;;10.20;100.00;101136.19;5038062;28;20064;-96
2021/11/10 01:31:41;;;;;;;13.05;6.60;;;;;;;10.12;100.00;101122.56;5040273;28;20041;-96
2021/11/10 01:34:08;;;;;;;12.80;6.40;;;;;;;10.14;100.00;101130.34;5042143;28;20045;-96
2021/11/10 01:36:41;;;;;;;8.55;6.03;;;;;;;10.10;100.00;101129.56;5037493;28;20523;-96
2021/11/10 01:39:10;;;;;;;9.27;5.82;;;;;;;10.23;100.00;101122.22;5040324;28;20041;-95
2021/11/10 01:42:01;;;;;;;7.22;5.72;;;;;;;10.28;100.00;101111.63;5038361;28;20048;-95
2021/11/10 01:44:31;;;;;;;11.13;5.82;;;;;;;10.09;100.00;101103.59;5037264;28;20141;-95
2021/11/10 01:47:02;;;;;;;6.93;5.70;;;;;;;10.12;100.00;101111.28;5019935;28;20049;-96
2021/11/10 01:49:31;;;;;;;7.82;5.53;;;;;;;10.20;100.00;101114.47;5036421;28;20147;-94
2021/11/10 01:52:09;;;;;;;8.73;5.32;;;;;;;10.23;100.00;101110.06;5018924;28;20101;-95
2021/11/10 01:54:39;;;;;;;7.90;5.55;;;;;;;10.24;100.00;101110.91;5034058;28;20072;-95
2021/11/10 01:57:12;;;;;;;8.27;5.50;;;;;;;10.11;100.00;101105.22;5033702;28;20061;-95
2021/11/10 01:59:46;;;;;;;6.78;5.47;;;;;;;10.18;100.00;101098.91;5033185;28;20484;-94
2021/11/10 02:02:21;;;;;;;8.85;6.18;;;;;;;10.09;100.00;101117.47;5033450;28;20049;-94
2021/11/10 02:04:56;;;;;;;8.75;5.63;;;;;;;10.02;100.00;101113.38;5033451;28;20087;-96
2021/11/10 02:07:28;;;;;;;7.60;5.57;;;;;;;10.00;100.00;101103.88;5034238;28;20133;-93
2021/11/10 02:09:55;;;;;;;12.82;6.40;;;;;;;10.23;100.00;101104.84;5037105;28;20064;-95
2021/11/10 02:12:22;;;;;;;8.27;5.95;;;;;;;10.16;100.00;101107.66;5043641;28;20034;-96
2021/11/10 02:18:26;;;;;;;9.38;5.10;;;;;;;10.28;100.00;101086.44;5057125;28;20040;-86
2021/11/10 02:21:07;;;;;;;9.60;5.40;;;;;;;10.17;100.00;101088.53;5050710;28;20056;-96
2021/11/10 02:23:35;;;;;;;9.15;6.03;;;;;;;10.01;100.00;101084.75;5022932;28;20057;-96
2021/11/10 02:26:06;;;;;;;9.15;5.68;;;;;;;10.03;100.00;101082.97;5043667;28;20051;-96
2021/11/10 02:28:35;;;;;;;6.68;5.68;;;;;;;10.06;100.00;101078.47;5042100;28;20503;-95
2021/11/10 02:31:04;;;;;;;8.82;5.78;;;;;;;9.97;100.00;101079.66;5042024;28;20068;-96
2021/11/10 02:33:31;;;;;;;8.77;5.60;;;;;;;10.12;100.00;101080.88;5044215;28;20051;-96
2021/11/10 02:36:04;;;;;;;6.72;5.43;;;;;;;10.25;100.00;101081.34;5040499;28;20042;-95
2021/11/10 02:38:32;;;;;;;7.93;6.22;;;;;;;10.15;100.00;101085.13;5036708;28;20415;-95
2021/11/10 02:41:01;;;;;;;11.05;5.47;;;;;;;10.09;100.00;101080.97;5045535;28;20037;-94
2021/11/10 02:43:28;;;;;;;11.43;5.63;;;;;;;9.95;100.00;101080.59;5045321;28;20072;-96
2021/11/10 02:45:56;;;;;;;8.25;5.45;;;;;;;10.07;100.00;101082.81;5037306;28;20049;-96
2021/11/10 02:48:23;;;;;;;12.38;5.97;;;;;;;10.12;100.00;101080.00;5042018;28;20038;-96
2021/11/10 02:50:51;;;;;;;8.95;6.40;;;;;;;10.15;100.00;101080.75;5043548;28;20037;-96
2021/11/10 02:53:18;;;;;;;12.35;7.70;;;;;;;10.16;100.00;101082.47;5044925;28;20145;-96
2021/11/10 02:55:45;;;;;;;10.88;6.15;;;;;;;9.99;100.00;101084.81;5048072;28;20050;-95
2021/11/10 02:58:11;;;;;;;11.52;7.20;;;;;;;10.01;100.00;101092.56;5046781;28;20053;-96
2021/11/10 03:00:38;;;;;;;12.75;6.28;;;;;;;10.08;100.00;101088.88;5047581;28;20046;-96
2021/11/10 03:03:06;;;;;;;10.32;5.45;;;;;;;10.27;100.00;101089.09;5030031;28;20090;-96
2021/11/10 03:05:37;;;;;;;13.00;6.00;;;;;;;10.26;100.00;101077.81;5047174;28;20072;-96
2021/11/10 03:08:04;;;;;;;9.73;5.93;;;;;;;10.16;100.00;101079.00;5049777;28;20060;-93
2021/11/10 03:10:32;;;;;;;5.97;5.38;;;;;;;10.15;100.00;101078.16;5050800;28;20093;-95
2021/11/10 03:13:00;;;;;;;19.67;8.40;;;;;;;10.00;100.00;101080.44;5042706;28;20079;-95
2021/11/10 03:15:28;;;;;;;9.45;6.82;;;;;;;10.03;100.00;101070.78;5037001;28;20057;-96
2021/11/10 03:17:56;;;;;;;10.95;7.53;;;;;;;10.01;100.00;101071.72;5054420;28;20051;-96
2021/11/10 03:20:50;;;;;;;8.48;6.50;;;;;;;10.03;100.00;101070.78;5020593;28;20524;-96
2021/11/10 03:23:17;;;;;;;9.18;7.28;;;;;;;10.04;100.00;101069.03;5017984;28;20045;-96
2021/11/10 03:25:47;;;;;;;10.02;6.82;;;;;;;10.11;100.00;101075.72;5011752;28;20399;-95
2021/11/10 03:28:20;;;;;;;14.15;7.45;;;;;;;9.98;100.00;101077.91;5037203;28;20042;-91
2021/11/10 03:30:57;;;;;;;11.32;7.57;;;;;;;9.97;100.00;101090.06;5015812;28;20046;-92
2021/11/10 03:33:26;;;;;;;10.27;7.93;;;;;;;10.01;100.00;101079.53;5036723;28;20518;-93
2021/11/10 03:35:58;;;;;;;9.02;7.53;;;;;;;9.88;100.00;101077.34;5038596;28;20046;-94
2021/11/10 03:38:25;;;;;;;18.73;10.65;;;;;;;9.94;100.00;101084.97;5039008;28;20046;-94
2021/11/10 03:40:55;;;;;;;10.40;8.77;;;;;;;9.86;100.00;101084.38;5027944;28;20046;-96
2021/11/10 03:43:30;;;;;;;11.68;7.70;;;;;;;9.96;100.00;101080.56;5028033;28;20132;-95
2021/11/10 03:46:01;;;;;;;16.88;8.15;;;;;;;9.86;100.00;101081.78;5025404;28;20057;-95
2021/11/10 03:48:30;;;;;;;8.00;7.15;;;;;;;9.64;100.00;101086.84;5046435;28;20052;-94
2021/11/10 03:50:57;;;;;;;11.40;7.68;;;;;;;9.81;100.00;101086.28;5038300;28;20037;-94
2021/11/10 03:53:26;;;;;;;12.32;7.68;;;;;;;9.80;100.00;101084.59;5037163;28;20081;-92
2021/11/10 03:55:53;;;;;;;9.82;7.55;;;;;;;10.06;100.00;101085.44;5046219;28;20065;-95
2021/11/10 03:59:18;;;;;;;9.15;7.38;;;;;;;10.09;100.00;101090.56;5042269;28;20042;-95
2021/11/10 04:01:47;;;;;;;12.27;8.98;;;;;;;10.09;100.00;101085.34;5024340;28;20064;-95
2021/11/10 04:04:15;;;;;;;10.85;8.10;;;;;;;9.98;100.00;101081.34;5023841;28;20500;-95
2021/11/10 04:06:42;;;;;;;8.68;7.47;;;;;;;9.82;100.00;101081.94;5016875;28;20504;-96
2021/11/10 04:09:42;;;;;;;10.77;7.72;;;;;;;9.77;100.00;101061.25;5016213;28;20465;-95
2021/11/10 04:12:11;;;;;;;10.25;8.35;;;;;;;9.75;100.00;101065.66;5019414;28;20073;-96
2021/11/10 04:14:40;;;;;;;10.63;8.07;;;;;;;10.03;100.00;101065.56;5019753;28;20042;-96
2021/11/10 04:17:10;;;;;;;14.43;8.32;;;;;;;10.04;100.00;101069.03;5019859;28;20064;-96
2021/11/10 04:19:46;;;;;;;13.57;8.45;;;;;;;10.08;100.00;101063.66;5017085;28;20137;-96
2021/11/10 04:22:13;;;;;;;10.43;8.35;;;;;;;9.89;100.00;101076.44;5032457;28;20065;-96
2021/11/10 04:24:44;;;;;;;13.82;10.30;;;;;;;10.02;100.00;101076.06;5049231;28;20056;-96
2021/11/10 04:27:18;;;;;;;9.57;8.23;;;;;;;9.91;100.00;101082.47;5042447;28;20038;-96
2021/11/10 04:30:16;;;;;;;10.30;8.35;;;;;;;9.78;100.00;101075.13;5036183;28;20045;-96
2021/11/10 04:32:44;;;;;;;13.85;9.05;;;;;;;9.72;100.00;101078.78;5034053;28;20492;-92
2021/11/10 04:35:14;;;;;;;9.90;8.00;;;;;;;9.88;100.00;101081.72;5017834;28;20053;-93
2021/11/10 04:37:44;;;;;;;13.63;9.27;;;;;;;10.01;100.00;101089.94;5028641;28;20084;-91
2021/11/10 04:40:12;;;;;;;11.70;8.63;;;;;;;10.02;100.00;101087.31;5031563;28;20405;-96
2021/11/10 04:42:40;;;;;;;11.88;8.70;;;;;;;9.75;100.00;101096.03;5015164;28;20049;-95
2021/11/10 04:45:12;;;;;;;11.80;8.68;;;;;;;9.93;100.00;101091.06;5015344;28;20099;-95
2021/11/10 04:47:40;;;;;;;12.48;8.93;;;;;;;9.78;100.00;101086.38;5016882;28;20480;-95
2021/11/10 04:50:08;;;;;;;9.38;8.30;;;;;;;9.63;100.00;101082.53;5031932;28;20116;-95
2021/11/10 04:52:37;;;;;;;12.82;8.10;;;;;;;9.78;100.00;101080.31;5031741;28;20042;-96
2021/11/10 04:55:06;;;;;;;10.75;7.07;;;;;;;9.85;100.00;101076.59;5016858;28;20050;-95
2021/11/10 04:57:35;;;;;;;11.75;8.60;;;;;;;9.97;100.00;101076.22;5030770;28;20077;-95
2021/11/10 05:00:06;;;;;;;10.57;8.82;;;;;;;9.96;100.00;101074.50;5034098;28;20113;-95
2021/11/10 05:02:38;;;;;;;18.80;9.68;;;;;;;9.70;100.00;101072.78;5035297;28;20073;-93
2021/11/10 05:05:09;;;;;;;13.50;8.23;;;;;;;9.65;100.00;101077.28;5035382;28;20059;-94
2021/11/10 05:07:35;;;;;;;12.73;8.50;;;;;;;9.67;100.00;101062.44;5041039;28;20072;-94
2021/11/10 05:10:05;;;;;;;9.95;8.02;;;;;;;9.44;100.00;101060.63;5033462;28;20045;-95
2021/11/10 05:12:32;;;;;;;12.93;9.68;;;;;;;9.42;100.00;101058.03;5050230;28;20068;-94
2021/11/10 05:14:59;;;;;;;12.18;7.68;;;;;;;9.35;100.00;101056.53;5040717;28;20183;-94
2021/11/10 05:17:26;;;;;;;11.45;8.43;;;;;;;9.50;100.00;101055.22;5034426;28;20045;-94
2021/11/10 05:19:53;;;;;;;14.75;8.13;;;;;;;9.49;100.00;101057.88;5035455;28;20064;-94
2021/11/10 05:22:38;;;;;;;10.18;7.93;;;;;;;9.94;100.00;101066.72;5050087;28;20076;-94
2021/11/10 05:25:10;;;;;;;11.68;9.23;;;;;;;9.86;100.00;101073.97;5053698;28;20045;-95
2021/11/10 05:27:37;;;;;;;12.25;7.60;;;;;;;9.86;100.00;101073.13;5041858;28;20051;-93
2021/11/10 05:30:08;;;;;;;10.30;8.50;;;;;;;9.95;100.00;101068.41;5039980;28;20071;-94
2021/11/10 05:32:35;;;;;;;12.68;8.57;;;;;;;9.82;100.00;101067.16;5046490;28;20041;-95
2021/11/10 05:35:03;;;;;;;13.90;8.93;;;;;;;9.76;100.00;101066.53;5044626;28;20050;-96
2021/11/10 05:37:30;;;;;;;11.48;8.70;;;;;;;9.83;100.00;101058.44;5050568;28;20025;-96
2021/11/10 05:40:01;;;;;;;13.30;9.70;;;;;;;9.81;100.00;101060.25;5048708;28;20103;-95
2021/11/10 05:42:29;;;;;;;11.23;8.07;;;;;;;9.86;100.00;101062.69;5046492;28;20041;-96
2021/11/10 05:44:56;;;;;;;13.57;9.43;;;;;;;9.71;100.00;101056.25;5041577;28;20049;-95
2021/11/10 05:47:24;;;;;;;12.40;8.80;;;;;;;9.77;100.00;101058.66;5038949;28;20042;-96
2021/11/10 05:49:54;;;;;;;11.30;9.40;;;;;;;9.91;100.00;101059.03;5020510;28;20120;-96
2021/11/10 05:52:21;;;;;;;13.27;9.95;;;;;;;9.91;100.00;101055.59;5033868;28;20095;-92
2021/11/10 05:54:48;;;;;;;11.77;9.13;;;;;;;9.97;100.00;101058.81;5033428;28;20084;-93
2021/11/10 05:57:15;;;;;;;13.13;8.18;;;;;;;9.91;100.00;101061.66;5033476;28;20103;-93
2021/11/10 05:59:43;;;;;;;14.88;9.45;;;;;;;9.80;100.00;101068.97;5035291;28;20455;-96
2021/11/10 06:02:11;;;;;;;14.55;8.35;;;;;;;9.89;100.00;101084.25;5033876;28;20041;-91
2021/11/10 06:04:38;;;;;;;13.38;8.25;;;;;;;9.87;100.00;101070.44;5031539;28;20054;-93
2021/11/10 06:07:08;;;;;;;15.93;10.23;;;;;;;9.92;100.00;101067.69;5034176;28;20057;-91
2021/11/10 06:09:35;;;;;;;15.45;10.52;;;;;;;10.12;100.00;101060.06;5032926;28;20049;-89
2021/11/10 06:12:03;;;;;;;14.43;9.13;;;;;;;10.11;100.00;101068.75;5036330;28;20076;-94
2021/11/10 06:14:30;;;;;;;12.07;9.30;;;;;;;10.07;100.00;101066.31;5035360;28;20427;-89
2021/11/10 06:16:57;;;;;;;12.25;9.48;;;;;;;9.91;100.00;101060.78;5026067;28;20042;-93
2021/11/10 06:19:26;;;;;;;12.18;9.45;;;;;;;9.78;100.00;101062.09;5029090;28;20041;-89
2021/11/10 06:21:54;;;;;;;13.88;8.77;;;;;;;9.95;100.00;101067.56;5022947;28;20041;-90
2021/11/10 06:24:21;;;;;;;12.65;9.68;;;;;;;9.91;100.00;101069.47;5023019;28;20424;-89
2021/11/10 06:26:49;;;;;;;15.45;9.40;;;;;;;9.94;100.00;101082.34;5017832;28;20496;-88
2021/11/10 06:29:17;;;;;;;11.35;8.73;;;;;;;9.90;100.00;101083.34;5024309;28;20049;-92
2021/11/10 06:31:44;;;;;;;12.90;9.10;;;;;;;9.98;100.00;101078.75;5019997;28;20146;-94
2021/11/10 06:34:10;;;;;;;13.20;8.80;;;;;;;9.97;100.00;101079.66;5027511;28;20042;-96
2021/11/10 06:36:37;;;;;;;12.40;8.25;;;;;;;10.13;100.00;101076.53;5032041;28;20429;-89
2021/11/10 06:39:04;;;;;;;14.68;8.80;;;;;;;10.09;100.00;101085.34;5037096;28;20042;-88
2021/11/10 06:41:31;;;;;;;11.48;8.38;;;;;;;10.12;100.00;101085.22;5034861;28;20091;-90
2021/11/10 06:43:58;;;;;;;12.43;8.68;;;;;;;9.91;100.00;101085.09;5034582;28;20091;-89
2021/11/10 06:46:25;;;;;;;11.93;8.38;;;;;;;9.95;100.00;101081.44;5035141;28;20052;-91
2021/11/10 06:48:53;;;;;;;12.38;8.63;;;;;;;10.21;100.00;101087.53;5038864;28;20061;-87
2021/11/10 06:51:20;;;;;;;11.40;9.05;;;;;;;10.13;100.00;101076.53;5031975;28;20987;-89
2021/11/10 06:53:47;;;;;;;11.65;8.40;;;;;;;10.10;100.00;101092.25;5026123;28;20069;-92
2021/11/10 06:56:15;;;;;;;14.85;11.27;;;;;;;10.04;100.00;101095.06;5028355;28;20058;-92
2021/11/10 06:58:42;;;;;;;10.23;8.15;;;;;;;10.03;100.00;101081.19;5028508;28;20037;-83
2021/11/10 07:01:09;;;;;;;13.57;9.90;;;;;;;10.12;100.00;101095.66;5023597;28;20041;-82
2021/11/10 07:03:36;;;;;;;11.43;8.95;;;;;;;10.07;100.00;101093.22;5026154;28;20041;-82
2021/11/10 07:06:03;;;;;;;12.27;9.02;;;;;;;10.01;100.00;101102.97;5026467;28;20742;-80
2021/11/10 07:08:29;;;;;;;13.13;9.60;;;;;;;10.07;100.00;101097.59;5024638;28;20049;-82
2021/11/10 07:10:56;;;;;;;11.38;9.15;;;;;;;10.29;100.00;101093.34;5024961;28;20038;-80
2021/11/10 07:13:23;;;;;;;12.48;9.25;;;;;;;10.32;100.00;101095.84;5020033;28;20034;-81
2021/11/10 07:15:51;;;;;;;21.60;12.13;;;;;;;10.24;100.00;101092.66;5017563;28;20045;-80
2021/11/10 07:18:18;;;;;;;22.13;14.05;;;;;;;10.26;100.00;101095.22;5018940;28;20049;-84
2021/11/10 07:20:44;;;;;;;22.08;14.60;;;;;;;10.26;100.00;101103.88;5017674;28;20041;-81
2021/11/10 07:23:11;;;;;;;28.05;14.90;;;;;;;10.31;100.00;101116.75;5044012;28;20044;-79
2021/11/10 07:25:38;;;;;;;22.73;13.68;;;;;;;10.11;100.00;101131.28;5030375;28;20095;-80
2021/11/10 07:28:05;;;;;;;16.25;12.07;;;;;;;9.96;100.00;101135.25;5033266;28;20396;-79
2021/11/10 07:30:32;;;;;;;13.57;10.98;;;;;;;9.99;100.00;101136.91;5029574;28;20037;-81
2021/11/10 07:32:59;;;;;;;11.98;9.25;;;;;;;10.20;100.00;101132.72;5030678;28;20088;-80
2021/11/10 07:35:27;;;;;;;16.40;9.00;;;;;;;10.01;100.00;101116.00;5028427;28;20049;-81
2021/11/10 07:37:54;;;;;;;11.15;9.02;;;;;;;10.13;100.00;101128.63;5032138;28;20045;-82
2021/11/10 07:40:24;;;;;;;14.32;9.85;;;;;;;10.34;100.00;101127.06;5019651;28;20045;-80
2021/11/10 07:42:51;;;;;;;16.48;9.65;;;;;;;10.54;100.00;101129.81;5018724;28;20045;-83
2021/11/10 07:45:20;;;;;;;14.15;9.43;;;;;;;10.45;100.00;101141.44;5016457;28;20499;-84
2021/11/10 07:47:48;;;;;;;14.88;12.88;;;;;;;10.22;100.00;101159.56;5030498;28;20041;-82
2021/11/10 07:50:18;;;;;;;17.45;12.00;;;;;;;10.28;100.00;101156.81;5032214;28;20046;-85
2021/11/10 07:52:46;;;;;;;16.77;12.27;;;;;;;10.34;100.00;101143.56;5024194;28;20507;-83
2021/11/10 07:55:13;;;;;;;16.35;10.48;;;;;;;10.55;100.00;101152.38;5022948;28;20468;-81
2021/11/10 07:57:40;;;;;;;19.13;10.27;;;;;;;10.34;100.00;101147.94;5031314;28;20103;-79
2021/11/10 08:00:27;;;;;;;17.67;10.73;;;;;;;10.16;100.00;101145.00;5029719;28;20064;-80
2021/11/10 08:02:54;;;;;;;17.88;11.43;;;;;;;10.31;100.00;101137.59;5030835;28;20080;-80
2021/11/10 08:05:21;;;;;;;26.65;18.55;;;;;;;10.34;100.00;101138.34;5030032;28;20383;-83
2021/11/10 08:07:48;;;;;;;23.27;15.93;;;;;;;10.45;100.00;101138.81;5018134;28;20087;-83
2021/11/10 08:10:16;;;;;;;23.58;14.15;;;;;;;10.65;100.00;101147.66;5015842;28;20560;-82
2021/11/10 08:12:46;;;;;;;17.67;12.73;;;;;;;10.90;100.00;101153.69;5017979;28;20609;-85
2021/11/10 08:15:14;;;;;;;17.17;10.40;;;;;;;10.87;100.00;101156.44;5022595;28;20045;-87
2021/11/10 08:17:41;;;;;;;19.58;11.52;;;;;;;10.57;100.00;101154.94;5040570;28;20072;-85
2021/11/10 08:20:15;;;;;;;18.25;12.15;;;;;;;10.81;100.00;101154.03;5033274;28;20087;-87
2021/11/10 08:22:46;;;;;;;18.33;12.13;;;;;;;10.75;100.00;101138.63;5025030;28;20038;-84
2021/11/10 08:25:15;;;;;;;22.00;14.75;;;;;;;10.46;100.00;101131.84;5027970;28;20099;-86
2021/11/10 08:27:43;;;;;;;16.88;14.32;;;;;;;10.87;96.40;101129.50;5018748;28;20476;-82
2021/11/10 08:30:18;;;;;;;17.13;12.38;;;;;;;10.97;94.90;101129.13;5017367;28;20558;-82
2021/11/10 08:32:46;;;;;;;18.42;12.50;;;;;;;10.98;93.58;101117.75;5030113;28;20045;-85
2021/11/10 08:35:13;;;;;;;14.82;10.25;;;;;;;11.07;92.27;101113.09;5030780;28;20046;-83
2021/11/10 08:37:40;;;;;;;17.75;10.70;;;;;;;11.24;91.26;101100.25;5029349;28;20504;-82
2021/11/10 08:40:10;;;;;;;17.27;12.52;;;;;;;11.02;91.64;101085.44;5027788;28;20042;-83
2021/11/10 08:42:38;;;;;;;12.20;10.02;;;;;;;10.97;92.23;101092.59;5031411;28;20515;-83
2021/11/10 08:45:16;;;;;;;15.23;10.60;;;;;;;11.07;93.22;101087.84;5021706;28;20088;-84
2021/11/10 08:47:44;;;;;;;14.73;10.07;;;;;;;11.15;91.79;101095.38;5029234;28;20092;-87
2021/11/10 08:50:14;;;;;;;19.50;12.50;;;;;;;11.42;89.45;101103.91;5019736;28;20056;-82
2021/11/10 08:52:41;;;;;;;14.88;10.07;;;;;;;11.34;90.25;101088.53;5020335;28;20100;-86
2021/11/10 08:55:09;;;;;;;15.15;9.77;;;;;;;11.35;86.77;101092.00;5019540;28;20054;-82
2021/11/10 08:57:40;;;;;;;17.08;11.38;;;;;;;11.38;88.25;101111.00;5027836;28;20044;-78
2021/11/10 09:00:13;;;;;;;15.25;10.55;;;;;;;11.60;87.18;101102.28;5026486;28;20084;-82
2021/11/10 09:02:40;;;;;;;17.30;13.02;;;;;;;11.38;88.97;101097.94;5024930;28;20107;-87
2021/11/10 09:05:08;;;;;;;12.25;9.13;;;;;;;11.19;89.12;101094.38;5018984;28;20473;-83
2021/11/10 09:07:35;;;;;;;15.50;9.13;;;;;;;11.21;90.03;101095.16;5027377;28;20077;-85
2021/11/10 09:10:04;;;;;;;13.52;9.30;;;;;;;11.48;90.99;101094.06;5025176;28;20042;-88
2021/11/10 09:12:31;;;;;;;14.40;9.20;;;;;;;11.67;88.42;101098.53;5015675;28;20042;-85
2021/11/10 09:14:59;;;;;;;15.50;10.77;;;;;;;11.57;89.42;101089.38;5021441;28;20488;-86
2021/11/10 09:17:26;;;;;;;18.38;12.30;;;;;;;11.54;90.72;101096.41;5031394;28;20045;-86
2021/11/10 09:19:54;;;;;;;16.35;11.70;;;;;;;11.60;92.73;101097.06;5028907;28;20033;-86
2021/11/10 09:22:21;;;;;;;15.52;10.07;;;;;;;11.52;92.49;101090.41;5028672;28;20500;-81
2021/11/10 09:24:48;;;;;;;16.40;9.48;;;;;;;11.38;93.88;101104.91;5026626;28;20038;-83
2021/11/10 09:27:15;;;;;;;11.65;10.07;;;;;;;11.41;95.84;101105.66;5031634;28;20049;-87
2021/11/10 09:29:42;;;;;;;15.90;10.02;;;;;;;11.05;97.25;101107.09;5028279;28;20041;-86
2021/11/10 09:32:09;;;;;;;13.27;10.40;;;;;;;10.96;98.91;101096.09;5017987;28;20042;-85
2021/11/10 09:34:37;;;;;;;19.90;9.98;;;;;;;10.84;98.54;101106.13;5022793;28;20048;-83
2021/11/10 09:37:05;;;;;;;14.38;9.20;;;;;;;11.08;97.69;101110.44;5024516;28;20049;-85
2021/11/10 09:39:32;;;;;;;19.05;13.20;;;;;;;11.41;94.93;101102.19;5027287;28;20053;-84
2021/11/10 09:42:00;;;;;;;14.30;10.15;;;;;;;11.18;95.04;101100.47;5030166;28;20095;-88
2021/11/10 09:44:27;;;;;;;10.18;8.98;;;;;;;11.23;92.77;101094.16;5030641;28;20041;-83
2021/11/10 09:46:55;;;;;;;12.73;8.70;;;;;;;11.46;91.44;101101.09;5027692;28;20079;-89
2021/11/10 09:49:22;;;;;;;17.88;11.23;;;;;;;11.76;91.91;101108.59;5030711;28;20068;-88
2021/11/10 09:51:49;;;;;;;13.93;9.77;;;;;;;11.60;91.40;101103.13;5029511;28;20475;-87
2021/11/10 09:54:17;;;;;;;14.25;9.77;;;;;;;11.47;92.18;101092.34;5027105;28;20050;-88
2021/11/10 09:56:46;;;;;;;11.63;9.02;;;;;;;11.75;90.13;101099.06;5025699;28;20057;-88
2021/11/10 09:59:16;;;;;;;17.60;9.82;;;;;;;11.73;89.69;101090.44;5030035;28;20053;-87
2021/11/10 10:01:43;;;;;;;16.98;8.55;;;;;;;11.99;88.92;101090.25;5029282;28;20041;-85
2021/11/10 10:04:12;;;;;;;13.40;9.10;;;;;;;11.80;91.37;101089.28;5025785;28;20396;-82
2021/11/10 10:06:41;;;;;;;13.77;10.43;;;;;;;11.87;92.15;101082.91;5025848;28;20060;-82
2021/11/10 10:09:08;;;;;;;14.55;10.65;;;;;;;11.62;94.42;101062.16;5026233;28;20042;-82
2021/11/10 10:11:35;;;;;;;16.63;9.77;;;;;;;11.15;99.56;101069.28;5031126;28;20079;-83
2021/11/10 10:14:02;;;;;;;15.50;8.98;;;;;;;11.11;100.00;101067.72;5029565;28;20041;-83
2021/11/10 10:16:34;;;;;;;18.38;9.45;;;;;;;11.27;100.00;101077.47;5030178;28;20049;-83
2021/11/10 10:19:12;;;;;;;10.50;8.70;;;;;;;11.24;99.77;101080.22;5029926;28;20046;-81
2021/11/10 10:21:43;;;;;;;16.25;10.88;;;;;;;11.51;100.00;101078.28;5030059;28;20053;-81
2021/11/10 10:24:14;;;;;;;15.30;10.10;;;;;;;11.36;100.00;101078.03;5025354;28;20045;-85
2021/11/10 10:26:41;;;;;;;16.67;10.32;;;;;;;11.60;100.00;101084.00;5030133;28;20115;-83
2021/11/10 10:29:12;;;;;;;13.27;10.82;;;;;;;11.40;100.00;101077.84;5031959;28;20125;-82
2021/11/10 10:31:42;;;;;;;16.35;11.30;;;;;;;11.63;100.00;101070.84;5031470;28;20045;-81
2021/11/10 10:34:12;;;;;;;14.15;10.07;;;;;;;11.39;98.62;101070.91;5031367;28;20047;-82
2021/11/10 10:36:42;;;;;;;13.05;9.82;;;;;;;11.63;97.65;101073.47;5031374;28;20104;-81
2021/11/10 10:39:11;;;;;;;16.60;10.55;;;;;;;12.28;94.69;101081.13;5027365;28;20042;-82
2021/11/10 10:41:46;;;;;;;15.70;10.70;;;;;;;12.37;92.66;101069.44;5030943;28;20076;-81
2021/11/10 10:44:17;;;;;;;16.08;10.65;;;;;;;11.93;97.22;101073.94;5031540;28;20050;-86
2021/11/10 10:46:54;;;;;;;14.43;10.00;;;;;;;11.84;97.91;101075.22;5030755;28;20558;-84
2021/11/10 10:49:30;;;;;;;14.95;10.82;;;;;;;11.82;97.71;101071.78;5031465;28;20064;-83
2021/11/10 10:52:11;;;;;;;15.48;11.63;;;;;;;12.14;95.87;101059.13;5030959;28;20037;-85
2021/11/10 10:54:40;;;;;;;12.50;10.65;;;;;;;12.19;95.66;101049.31;5025884;28;20045;-82
2021/11/10 10:57:10;;;;;;;14.93;10.57;;;;;;;12.30;93.58;101037.50;5030913;28;20091;-84
2021/11/10 10:59:38;;;;;;;13.88;10.32;;;;;;;12.54;92.48;101032.06;5027604;28;20038;-83
2021/11/10 11:02:06;;;;;;;13.48;10.70;;;;;;;12.21;94.79;101023.97;5029630;28;20095;-80
2021/11/10 11:04:42;;;;;;;15.00;10.63;;;;;;;12.24;92.38;101015.97;5029490;28;20046;-81
2021/11/10 11:07:11;;;;;;;15.77;11.40;;;;;;;12.49;91.03;101019.19;5031282;28;20455;-81
2021/11/10 11:09:49;;;;;;;13.23;10.95;;;;;;;12.72;90.02;101012.03;5031507;28;20042;-83
2021/11/10 11:12:27;;;;;;;20.48;11.93;;;;;;;12.75;91.85;101010.16;5029535;28;20057;-83
2021/11/10 11:15:06;;;;;;;15.43;12.32;;;;;;;12.46;91.20;101016.69;5029990;28;20047;-81
2021/11/10 11:17:36;;;;;;;21.52;13.95;;;;;;;12.20;94.13;101010.06;5033301;28;20439;-87
2021/11/10 11:20:07;;;;;;;24.80;14.88;;;;;;;12.30;94.20;101010.47;5035518;28;20485;-81
2021/11/10 11:22:41;;;;;;;19.75;14.65;;;;;;;12.41;90.85;101026.56;5035493;28;20049;-82
2021/11/10 11:25:15;;;;;;;19.05;13.98;;;;;;;12.45;91.91;101030.69;5033448;28;20044;-82
2021/11/10 11:27:57;;;;;;;17.77;13.63;;;;;;;12.78;90.67;101017.00;5034165;28;20431;-82